Time;durP1;ratioP1;P1;durP2;ratioP2;P2;SDS_P1;SDS_P2;PMS_P1;PMS_P2;Temp;Humidity;BMP_temperature;BMP_pressure;BME280_temperature;BME280_humidity;BME280_pressure;Samples;Min_cycle;Max_cycle;Signal;HPM_P1;HPM_P2
2023/11/18 00:00:51;;;;;;;5.00;3.37;;;2.50;99.90;;;;;;4849121;29;20204;-93
2023/11/18 00:03:17;;;;;;;5.07;3.40;;;2.50;99.90;;;;;;4850325;29;20196;-92
2023/11/18 00:05:43;;;;;;;4.87;3.50;;;2.50;99.90;;;;;;4866989;29;20666;-90
2023/11/18 00:08:09;;;;;;;4.47;3.23;;;2.50;99.90;;;;;;4856915;29;20204;-91
2023/11/18 00:10:34;;;;;;;5.20;3.40;;;2.40;99.90;;;;;;4847032;29;20193;-93
2023/11/18 00:13:01;;;;;;;3.80;2.73;;;2.40;99.90;;;;;;4847738;29;20704;-90
2023/11/18 00:15:29;;;;;;;4.93;3.00;;;2.40;99.90;;;;;;4854215;29;20216;-90
2023/11/18 00:17:54;;;;;;;4.07;2.70;;;2.30;99.90;;;;;;4855303;29;20255;-91
2023/11/18 00:20:20;;;;;;;3.77;2.60;;;2.30;99.90;;;;;;4858695;29;20660;-89
2023/11/18 00:22:46;;;;;;;3.83;2.97;;;2.20;99.90;;;;;;4859194;29;20220;-92
2023/11/18 00:25:14;;;;;;;4.20;3.20;;;2.20;99.90;;;;;;4849301;29;20495;-93
2023/11/18 00:27:43;;;;;;;8.67;6.10;;;2.20;99.90;;;;;;4857939;29;20367;-90
2023/11/18 00:30:10;;;;;;;12.00;8.07;;;2.10;99.90;;;;;;4864440;29;20203;-93
2023/11/18 00:32:39;;;;;;;5.20;3.67;;;2.10;99.90;;;;;;4847690;29;20238;-89
2023/11/18 00:35:05;;;;;;;5.70;3.47;;;2.10;99.90;;;;;;4847879;29;20188;-90
2023/11/18 00:37:31;;;;;;;5.70;3.30;;;2.00;99.90;;;;;;4847482;29;20187;-92
2023/11/18 00:39:57;;;;;;;3.43;2.80;;;2.00;99.90;;;;;;4846889;29;20318;-90
2023/11/18 00:42:23;;;;;;;6.67;3.20;;;2.00;99.90;;;;;;4844318;29;20251;-90
2023/11/18 00:44:49;;;;;;;4.03;3.13;;;2.00;99.90;;;;;;4843871;29;20233;-89
2023/11/18 00:47:15;;;;;;;5.57;3.00;;;1.90;99.90;;;;;;4841316;29;20285;-89
2023/11/18 00:49:41;;;;;;;4.77;2.70;;;1.90;99.90;;;;;;4833951;29;20214;-90
2023/11/18 00:52:08;;;;;;;4.33;2.90;;;2.00;99.90;;;;;;4827387;29;20212;-90
2023/11/18 00:54:36;;;;;;;5.37;2.87;;;1.90;99.90;;;;;;4834652;29;20190;-91
2023/11/18 00:57:02;;;;;;;3.53;2.90;;;1.90;99.90;;;;;;4845708;29;20275;-92
2023/11/18 00:59:28;;;;;;;5.40;3.07;;;1.90;99.90;;;;;;4847605;29;20200;-91
2023/11/18 01:01:53;;;;;;;5.53;2.90;;;2.00;99.90;;;;;;4846073;29;20217;-90
2023/11/18 01:04:19;;;;;;;3.93;2.87;;;2.00;99.90;;;;;;4839124;29;20204;-89
2023/11/18 01:06:48;;;;;;;6.77;3.23;;;2.00;99.90;;;;;;4840221;29;20264;-89
2023/11/18 01:09:16;;;;;;;6.17;3.40;;;2.10;99.90;;;;;;4827447;29;20465;-94
2023/11/18 01:11:41;;;;;;;4.20;3.17;;;2.10;99.90;;;;;;4831871;29;20226;-90
2023/11/18 01:14:07;;;;;;;3.83;3.27;;;2.20;99.90;;;;;;4828342;29;20193;-91
2023/11/18 01:16:37;;;;;;;2.90;2.53;;;2.30;99.90;;;;;;4836267;29;20190;-92
2023/11/18 01:19:02;;;;;;;3.27;2.50;;;2.30;99.90;;;;;;4828379;29;20197;-91
2023/11/18 01:21:28;;;;;;;4.20;3.10;;;2.30;99.90;;;;;;4832983;29;20299;-91
2023/11/18 01:23:55;;;;;;;3.77;2.67;;;2.40;99.90;;;;;;4845368;29;20197;-90
2023/11/18 01:26:23;;;;;;;5.50;2.80;;;2.40;99.90;;;;;;4841318;29;20198;-92
2023/11/18 01:28:49;;;;;;;3.80;2.73;;;2.30;99.90;;;;;;4828087;29;20308;-92
2023/11/18 01:31:15;;;;;;;4.23;2.77;;;2.30;99.90;;;;;;4836119;29;20218;-91
2023/11/18 01:33:41;;;;;;;4.13;2.97;;;2.30;99.90;;;;;;4842349;29;20197;-92
2023/11/18 01:36:08;;;;;;;5.53;3.07;;;2.30;99.90;;;;;;4843489;29;20202;-90
2023/11/18 01:38:37;;;;;;;3.43;2.70;;;2.30;99.90;;;;;;4835653;29;20223;-90
2023/11/18 01:41:05;;;;;;;3.03;2.60;;;2.30;99.90;;;;;;4845601;29;20296;-90
2023/11/18 01:43:32;;;;;;;4.77;3.30;;;2.30;99.90;;;;;;4860131;29;20197;-91
2023/11/18 01:46:02;;;;;;;4.50;2.90;;;2.40;99.90;;;;;;4861169;29;20237;-91
2023/11/18 01:48:36;;;;;;;3.83;2.97;;;2.40;99.90;;;;;;4854473;29;20244;-90
2023/11/18 01:51:06;;;;;;;3.93;2.93;;;2.50;99.90;;;;;;4855794;29;20217;-90
2023/11/18 01:53:36;;;;;;;3.50;2.70;;;2.50;99.90;;;;;;4856392;29;20244;-90
2023/11/18 01:56:05;;;;;;;4.23;2.90;;;2.50;99.90;;;;;;4856150;29;20209;-91
2023/11/18 01:58:35;;;;;;;4.47;2.80;;;2.50;99.90;;;;;;4852851;29;20220;-93
2023/11/18 02:01:02;;;;;;;3.97;3.07;;;2.50;99.90;;;;;;4864436;29;20622;-94
2023/11/18 02:03:30;;;;;;;3.70;3.00;;;2.60;99.90;;;;;;4844786;29;20193;-91
2023/11/18 02:05:57;;;;;;;3.57;2.80;;;2.60;99.90;;;;;;4862116;29;20293;-90
2023/11/18 02:08:24;;;;;;;5.90;2.70;;;2.60;99.90;;;;;;4846338;29;20209;-91
2023/11/18 02:11:00;;;;;;;5.43;3.27;;;2.60;99.90;;;;;;4845530;29;20662;-90
2023/11/18 02:13:36;;;;;;;7.73;3.60;;;2.70;99.90;;;;;;4850465;29;20255;-90
2023/11/18 02:16:07;;;;;;;3.43;2.90;;;2.80;99.90;;;;;;4857263;29;20209;-91
2023/11/18 02:18:33;;;;;;;3.80;3.00;;;2.80;99.90;;;;;;4865405;29;20204;-91
2023/11/18 02:21:00;;;;;;;6.20;2.80;;;2.80;99.90;;;;;;4862849;29;20295;-93
2023/11/18 02:23:27;;;;;;;4.63;3.20;;;2.90;99.90;;;;;;4845324;29;20197;-92
2023/11/18 02:25:53;;;;;;;4.03;3.00;;;2.90;99.90;;;;;;4860632;29;20199;-92
2023/11/18 02:28:22;;;;;;;5.60;3.37;;;2.90;99.90;;;;;;4853500;29;20213;-92
2023/11/18 02:30:49;;;;;;;6.97;3.10;;;3.00;99.90;;;;;;4846580;29;20644;-91
2023/11/18 02:33:38;;;;;;;8.27;3.37;;;3.00;99.90;;;;;;4844186;29;20197;-91
2023/11/18 02:36:10;;;;;;;5.20;3.40;;;3.10;99.90;;;;;;4853277;29;20184;-90
2023/11/18 02:38:45;;;;;;;7.77;3.30;;;3.10;99.90;;;;;;4845279;29;20200;-91
2023/11/18 02:41:13;;;;;;;7.13;3.43;;;3.10;99.90;;;;;;4845115;29;20315;-92
2023/11/18 02:43:40;;;;;;;4.63;3.13;;;3.10;99.90;;;;;;4846765;29;20226;-92
2023/11/18 02:46:07;;;;;;;6.07;3.63;;;3.20;99.90;;;;;;4852575;29;20258;-93
2023/11/18 02:48:34;;;;;;;6.60;3.47;;;3.20;99.90;;;;;;4847014;29;20582;-90
2023/11/18 02:51:01;;;;;;;4.43;2.90;;;3.20;99.90;;;;;;4845933;29;20374;-91
2023/11/18 02:53:27;;;;;;;7.97;3.30;;;3.20;99.90;;;;;;4858829;29;20594;-93
2023/11/18 02:55:54;;;;;;;3.73;3.00;;;3.20;99.90;;;;;;4856518;29;20189;-92
2023/11/18 02:58:20;;;;;;;5.10;2.97;;;3.20;99.90;;;;;;4865502;29;20207;-89
2023/11/18 03:00:48;;;;;;;4.27;2.80;;;3.20;99.90;;;;;;4857587;29;20196;-90
2023/11/18 03:03:14;;;;;;;5.97;2.87;;;3.20;99.90;;;;;;4855759;29;20204;-91
2023/11/18 03:05:39;;;;;;;3.63;2.80;;;3.20;99.90;;;;;;4847673;29;20197;-91
2023/11/18 03:08:08;;;;;;;4.77;3.20;;;3.20;99.90;;;;;;4847869;29;20197;-94
2023/11/18 03:10:35;;;;;;;3.93;2.90;;;3.20;99.90;;;;;;4848445;29;20189;-93
2023/11/18 03:13:02;;;;;;;4.40;3.20;;;3.10;99.90;;;;;;4854552;29;20201;-92
2023/11/18 03:15:29;;;;;;;5.33;3.53;;;3.10;99.90;;;;;;4849552;29;20247;-89
2023/11/18 03:17:55;;;;;;;4.43;3.57;;;3.00;99.90;;;;;;4857694;29;20220;-90
2023/11/18 03:20:22;;;;;;;4.70;3.37;;;3.00;99.90;;;;;;4857626;29;20185;-91
2023/11/18 03:22:51;;;;;;;4.00;2.80;;;2.90;99.90;;;;;;4857955;29;20209;-91
2023/11/18 03:25:19;;;;;;;6.37;3.20;;;2.90;99.90;;;;;;4846831;29;20189;-91
2023/11/18 03:27:44;;;;;;;6.00;3.50;;;2.80;99.90;;;;;;4859839;29;20605;-91
2023/11/18 03:30:11;;;;;;;4.40;3.27;;;2.90;99.90;;;;;;4855839;29;20266;-90
2023/11/18 03:32:38;;;;;;;6.47;3.37;;;2.80;99.90;;;;;;4851908;29;20212;-95
2023/11/18 03:35:08;;;;;;;5.23;3.10;;;2.80;99.90;;;;;;4856542;29;20197;-92
2023/11/18 03:37:38;;;;;;;3.07;2.50;;;2.80;99.90;;;;;;4846525;29;20265;-92
2023/11/18 03:40:06;;;;;;;4.50;3.33;;;2.70;99.90;;;;;;4847452;29;20201;-91
2023/11/18 03:42:31;;;;;;;5.83;3.27;;;2.80;99.90;;;;;;4850506;29;20252;-91
2023/11/18 03:44:57;;;;;;;4.37;3.37;;;2.80;99.90;;;;;;4848137;29;20197;-89
2023/11/18 03:47:25;;;;;;;11.00;3.50;;;2.70;99.90;;;;;;4849388;29;20200;-89
2023/11/18 03:49:51;;;;;;;4.77;3.37;;;2.70;99.90;;;;;;4864224;29;20248;-90
2023/11/18 03:52:17;;;;;;;4.10;3.17;;;2.70;99.90;;;;;;4846021;29;20232;-90
2023/11/18 03:54:43;;;;;;;4.43;3.23;;;2.70;99.90;;;;;;4846851;29;20185;-92
2023/11/18 03:57:08;;;;;;;6.80;3.30;;;2.60;99.90;;;;;;4847802;29;20639;-89
2023/11/18 03:59:34;;;;;;;4.73;3.20;;;2.60;99.90;;;;;;4858918;29;20201;-90
2023/11/18 04:02:00;;;;;;;4.40;3.30;;;2.50;99.90;;;;;;4853973;29;20231;-89
2023/11/18 04:04:25;;;;;;;4.37;3.00;;;2.50;99.90;;;;;;4845789;29;20642;-91
2023/11/18 04:06:51;;;;;;;3.77;2.70;;;2.40;99.90;;;;;;4846663;29;20216;-93
2023/11/18 04:09:17;;;;;;;4.37;2.83;;;2.40;99.90;;;;;;4846731;29;20208;-92
2023/11/18 04:11:45;;;;;;;5.70;2.80;;;2.30;99.90;;;;;;4856584;29;20211;-92
2023/11/18 04:14:12;;;;;;;5.33;2.73;;;2.30;99.90;;;;;;4856920;29;20196;-91
2023/11/18 04:16:40;;;;;;;4.27;2.93;;;2.30;99.90;;;;;;4852333;29;20193;-94
2023/11/18 04:19:06;;;;;;;4.30;3.07;;;2.30;99.90;;;;;;4854580;29;20228;-89
2023/11/18 04:21:33;;;;;;;3.90;2.80;;;2.20;99.90;;;;;;4847276;29;20221;-91
2023/11/18 04:23:58;;;;;;;4.23;2.97;;;2.20;99.90;;;;;;4846931;29;20189;-89
2023/11/18 04:26:28;;;;;;;5.13;3.07;;;2.20;99.90;;;;;;4846182;29;20193;-90
2023/11/18 04:28:54;;;;;;;5.13;3.27;;;2.10;99.90;;;;;;4846701;29;20273;-90
2023/11/18 04:31:21;;;;;;;7.67;3.23;;;2.10;99.90;;;;;;4857757;29;20220;-92
2023/11/18 04:33:47;;;;;;;3.50;3.03;;;2.00;99.90;;;;;;4850762;29;20197;-92
2023/11/18 04:36:16;;;;;;;3.93;2.93;;;2.00;99.90;;;;;;4845883;29;20188;-92
2023/11/18 04:38:42;;;;;;;8.07;3.37;;;2.00;99.90;;;;;;4852903;29;20208;-94
2023/11/18 04:41:08;;;;;;;3.70;3.10;;;2.00;99.90;;;;;;4846176;29;20244;-90
2023/11/18 04:43:34;;;;;;;5.57;3.50;;;2.00;99.90;;;;;;4844971;29;20538;-90
2023/11/18 04:46:00;;;;;;;4.37;3.23;;;2.00;99.90;;;;;;4853909;29;20291;-92
2023/11/18 04:48:26;;;;;;;4.67;3.60;;;2.00;99.90;;;;;;4853943;29;20233;-90
2023/11/18 04:50:52;;;;;;;4.10;3.10;;;2.00;99.90;;;;;;4846267;29;20729;-91
2023/11/18 04:53:18;;;;;;;4.60;3.47;;;2.00;99.90;;;;;;4846841;29;20179;-91
2023/11/18 04:55:44;;;;;;;6.30;3.77;;;2.00;99.90;;;;;;4846170;29;20237;-93
2023/11/18 04:58:15;;;;;;;4.57;3.47;;;2.00;99.90;;;;;;4846272;29;20185;-90
2023/11/18 05:00:42;;;;;;;3.97;3.23;;;1.90;99.90;;;;;;4846016;29;20181;-92
2023/11/18 05:03:12;;;;;;;4.63;3.13;;;1.90;99.90;;;;;;4848022;29;20197;-95
2023/11/18 05:05:39;;;;;;;4.43;3.33;;;1.90;99.90;;;;;;4850743;29;20265;-92
2023/11/18 05:08:09;;;;;;;4.37;3.20;;;1.90;99.90;;;;;;4853091;29;20189;-93
2023/11/18 05:10:36;;;;;;;3.20;2.83;;;1.80;99.90;;;;;;4836751;29;20194;-92
2023/11/18 05:13:02;;;;;;;5.30;3.57;;;1.80;99.90;;;;;;4828882;29;20170;-91
2023/11/18 05:15:30;;;;;;;4.97;3.20;;;1.80;99.90;;;;;;4845728;29;20176;-90
2023/11/18 05:17:55;;;;;;;5.37;3.10;;;1.80;99.90;;;;;;4852624;29;20197;-90
2023/11/18 05:20:23;;;;;;;5.33;3.47;;;1.80;99.90;;;;;;4864689;29;20663;-91
2023/11/18 05:22:49;;;;;;;5.83;3.30;;;1.80;99.90;;;;;;4862872;29;20200;-94
2023/11/18 05:25:14;;;;;;;3.97;3.40;;;1.80;99.90;;;;;;4846468;29;20189;-93
2023/11/18 05:27:40;;;;;;;3.67;2.80;;;1.70;99.90;;;;;;4849672;29;20275;-93
2023/11/18 05:30:10;;;;;;;4.50;3.10;;;1.70;99.90;;;;;;4855879;29;20211;-91
2023/11/18 05:32:37;;;;;;;5.00;3.60;;;1.60;99.90;;;;;;4850402;29;20289;-92
2023/11/18 05:35:04;;;;;;;4.50;3.10;;;1.50;99.90;;;;;;4845953;29;20193;-93
2023/11/18 05:37:37;;;;;;;5.23;3.43;;;1.50;99.90;;;;;;4857682;29;20207;-90
2023/11/18 05:40:07;;;;;;;6.80;2.97;;;1.40;99.90;;;;;;4864146;29;20201;-90
2023/11/18 05:42:36;;;;;;;4.77;2.90;;;1.40;99.90;;;;;;4863916;29;20240;-91
2023/11/18 05:45:04;;;;;;;7.40;3.40;;;1.40;99.90;;;;;;4864046;29;20259;-90
2023/11/18 05:47:30;;;;;;;5.00;3.20;;;1.30;99.90;;;;;;4846400;29;20662;-89
2023/11/18 05:49:56;;;;;;;6.00;3.10;;;1.30;99.90;;;;;;4854610;29;20213;-92
2023/11/18 05:52:24;;;;;;;4.00;2.87;;;1.20;99.90;;;;;;4846380;29;20214;-90
2023/11/18 05:54:50;;;;;;;4.20;2.80;;;1.20;99.90;;;;;;4847900;29;20254;-90
2023/11/18 05:57:17;;;;;;;3.97;3.10;;;1.30;99.90;;;;;;4847270;29;20246;-90
2023/11/18 05:59:43;;;;;;;5.87;3.53;;;1.30;99.90;;;;;;4855814;29;20246;-88
2023/11/18 06:02:17;;;;;;;6.97;2.80;;;1.30;99.90;;;;;;4847407;29;20224;-92
2023/11/18 06:04:43;;;;;;;5.50;3.00;;;1.40;99.90;;;;;;4848209;29;20196;-92
2023/11/18 06:07:09;;;;;;;3.13;2.53;;;1.30;99.90;;;;;;4862232;29;20617;-92
2023/11/18 06:09:35;;;;;;;4.00;2.90;;;1.30;99.90;;;;;;4852628;29;20220;-90
2023/11/18 06:12:00;;;;;;;4.27;3.03;;;1.40;99.90;;;;;;4843734;29;20213;-89
2023/11/18 06:14:26;;;;;;;4.47;3.20;;;1.40;99.90;;;;;;4853738;29;20707;-91
2023/11/18 06:16:52;;;;;;;4.57;3.47;;;1.40;99.90;;;;;;4846838;29;20201;-89
2023/11/18 06:19:18;;;;;;;6.93;4.07;;;1.40;99.90;;;;;;4850863;29;20213;-90
2023/11/18 06:21:44;;;;;;;5.47;3.70;;;1.50;99.90;;;;;;4848815;29;20213;-90
2023/11/18 06:24:11;;;;;;;5.00;3.73;;;1.60;99.90;;;;;;4853012;29;20261;-90
2023/11/18 06:26:37;;;;;;;5.93;4.10;;;1.60;99.90;;;;;;4853057;29;20200;-92
2023/11/18 06:29:04;;;;;;;6.67;4.50;;;1.70;99.90;;;;;;4852620;29;20288;-94
2023/11/18 06:31:30;;;;;;;5.80;3.93;;;1.70;99.90;;;;;;4842600;29;20246;-89
2023/11/18 06:33:56;;;;;;;5.27;4.30;;;1.80;99.90;;;;;;4842977;29;20193;-91
2023/11/18 06:36:23;;;;;;;6.40;4.20;;;1.90;99.90;;;;;;4842595;29;20706;-91
2023/11/18 06:38:50;;;;;;;5.50;4.10;;;1.90;99.90;;;;;;4842604;29;20189;-89
2023/11/18 06:41:17;;;;;;;8.40;3.73;;;1.90;99.90;;;;;;4841920;29;20737;-92
2023/11/18 06:46:32;;;;;;;6.77;3.63;;;2.00;99.90;;;;;;4844161;29;20177;-92
2023/11/18 06:48:59;;;;;;;5.83;4.23;;;2.10;99.90;;;;;;4857154;29;20208;-93
2023/11/18 06:51:27;;;;;;;5.17;3.97;;;2.10;99.90;;;;;;4849791;29;20258;-90
2023/11/18 06:53:57;;;;;;;5.07;3.80;;;2.20;99.90;;;;;;4842149;29;20197;-91
2023/11/18 06:56:26;;;;;;;5.97;3.93;;;2.20;99.90;;;;;;4849538;29;20216;-93
2023/11/18 06:58:52;;;;;;;6.73;3.50;;;2.20;99.90;;;;;;4849297;29;20192;-89
2023/11/18 07:01:18;;;;;;;5.73;4.33;;;2.20;99.90;;;;;;4845309;29;20217;-90
2023/11/18 07:03:48;;;;;;;4.87;3.60;;;2.30;99.90;;;;;;4854943;29;20249;-91
2023/11/18 07:06:21;;;;;;;6.00;4.27;;;2.30;99.90;;;;;;4842586;29;20531;-91
2023/11/18 07:08:49;;;;;;;6.57;3.67;;;2.30;99.90;;;;;;4842745;29;20197;-90
2023/11/18 07:11:16;;;;;;;6.77;3.80;;;2.30;99.90;;;;;;4841483;29;20213;-91
2023/11/18 07:13:44;;;;;;;4.83;3.77;;;2.40;99.90;;;;;;4849510;29;20228;-90
2023/11/18 07:16:09;;;;;;;5.43;4.20;;;2.30;99.90;;;;;;4842034;29;20197;-91
2023/11/18 07:18:37;;;;;;;5.43;3.70;;;2.30;99.90;;;;;;4843113;29;20702;-94
2023/11/18 07:21:06;;;;;;;5.93;3.90;;;2.40;99.90;;;;;;4856762;29;20220;-91
2023/11/18 07:23:32;;;;;;;5.53;3.83;;;2.30;99.90;;;;;;4853534;29;20638;-93
2023/11/18 07:25:58;;;;;;;4.73;3.60;;;2.40;99.90;;;;;;4845395;29;20664;-92
2023/11/18 07:28:25;;;;;;;5.40;3.63;;;2.40;99.90;;;;;;4841377;29;20213;-90
2023/11/18 07:30:53;;;;;;;5.83;3.90;;;2.40;99.90;;;;;;4841628;29;20196;-89
2023/11/18 07:33:20;;;;;;;5.27;3.80;;;2.40;99.90;;;;;;4856557;29;20189;-91
2023/11/18 07:35:48;;;;;;;6.30;4.60;;;2.40;99.90;;;;;;4841732;29;20189;-91
2023/11/18 07:38:15;;;;;;;5.70;4.47;;;2.40;99.90;;;;;;4856789;29;20258;-94
2023/11/18 07:40:45;;;;;;;5.97;4.30;;;2.40;99.90;;;;;;4843364;29;20192;-90
2023/11/18 07:43:12;;;;;;;7.80;4.60;;;2.40;99.90;;;;;;4851608;29;20200;-91
2023/11/18 07:45:39;;;;;;;8.23;4.70;;;2.40;99.90;;;;;;4845569;29;20242;-92
2023/11/18 07:48:16;;;;;;;6.70;4.90;;;2.50;99.90;;;;;;4852249;29;20231;-92
2023/11/18 07:50:44;;;;;;;6.63;4.73;;;2.50;99.90;;;;;;4845234;29;20216;-92
2023/11/18 07:53:11;;;;;;;6.83;4.47;;;2.60;99.90;;;;;;4854264;29;20196;-91
2023/11/18 07:55:39;;;;;;;8.03;5.13;;;2.60;99.90;;;;;;4857882;29;20181;-93
2023/11/18 07:58:10;;;;;;;6.13;4.50;;;2.60;99.90;;;;;;4859663;29;20195;-93
2023/11/18 08:00:43;;;;;;;6.80;4.70;;;2.70;99.90;;;;;;4844089;29;20197;-91
2023/11/18 08:03:20;;;;;;;7.93;4.40;;;2.80;99.90;;;;;;4860353;29;20187;-91
2023/11/18 08:05:46;;;;;;;10.67;4.73;;;2.90;99.90;;;;;;4859122;29;20192;-91
2023/11/18 08:08:20;;;;;;;6.13;4.63;;;3.00;99.90;;;;;;4854506;29;20188;-90
2023/11/18 08:10:48;;;;;;;6.97;5.50;;;3.10;99.90;;;;;;4845400;29;20222;-89
2023/11/18 08:13:13;;;;;;;6.63;5.00;;;3.20;99.90;;;;;;4851466;29;20253;-90
2023/11/18 08:15:41;;;;;;;6.10;4.70;;;3.30;99.90;;;;;;4857266;29;20199;-92
2023/11/18 08:18:07;;;;;;;6.90;4.90;;;3.20;99.90;;;;;;4845782;29;20276;-88
2023/11/18 08:20:33;;;;;;;11.00;5.37;;;3.30;99.90;;;;;;4844104;29;20185;-90
2023/11/18 08:22:59;;;;;;;7.67;5.00;;;3.30;99.90;;;;;;4851826;29;20243;-89
2023/11/18 08:25:25;;;;;;;9.70;5.23;;;3.30;99.90;;;;;;4850837;29;20192;-92
2023/11/18 08:27:51;;;;;;;10.43;5.83;;;3.30;99.90;;;;;;4850591;29;20196;-89
2023/11/18 08:30:18;;;;;;;8.57;6.33;;;3.40;99.90;;;;;;4847160;29;20602;-89
2023/11/18 08:32:45;;;;;;;10.20;6.13;;;3.50;99.90;;;;;;4855052;29;20212;-91
2023/11/18 08:35:15;;;;;;;9.23;6.17;;;3.50;99.90;;;;;;4860261;29;20202;-91
2023/11/18 08:37:45;;;;;;;10.83;7.40;;;3.50;99.90;;;;;;4865944;29;20207;-91
2023/11/18 08:40:15;;;;;;;12.27;8.37;;;3.60;99.90;;;;;;4853190;29;20204;-92
2023/11/18 08:42:49;;;;;;;12.83;7.20;;;3.50;99.90;;;;;;4854402;29;20387;-91
2023/11/18 08:45:21;;;;;;;10.87;7.63;;;3.60;99.90;;;;;;4844799;29;20214;-90
2023/11/18 08:47:48;;;;;;;13.20;7.87;;;3.60;99.90;;;;;;4851880;29;20633;-92
2023/11/18 08:50:17;;;;;;;12.80;7.70;;;3.70;99.90;;;;;;4853884;29;20216;-92
2023/11/18 08:52:49;;;;;;;9.37;7.03;;;3.70;99.90;;;;;;4862355;29;20216;-91
2023/11/18 08:55:19;;;;;;;12.00;7.77;;;3.80;99.90;;;;;;4862400;29;20176;-91
2023/11/18 08:58:19;;;;;;;11.07;7.83;;;3.80;99.90;;;;;;4854216;29;20274;-92
2023/11/18 09:00:53;;;;;;;16.40;9.20;;;3.90;99.90;;;;;;4857400;29;20291;-92
2023/11/18 09:03:34;;;;;;;15.90;9.43;;;4.00;99.90;;;;;;4859016;29;20199;-93
2023/11/18 09:06:04;;;;;;;15.13;9.53;;;4.00;99.90;;;;;;4844285;29;20192;-91
2023/11/18 09:08:42;;;;;;;18.63;10.10;;;4.10;99.90;;;;;;4851345;29;20212;-90
2023/11/18 09:11:16;;;;;;;18.70;10.13;;;4.10;99.90;;;;;;4852594;29;20237;-90
2023/11/18 09:13:49;;;;;;;21.27;10.90;;;4.10;99.90;;;;;;4862576;29;20214;-92
2023/11/18 09:16:15;;;;;;;19.23;10.80;;;4.20;99.90;;;;;;4844797;29;20189;-90
2023/11/18 09:18:44;;;;;;;19.20;10.50;;;4.20;99.90;;;;;;4847493;29;20200;-91
2023/11/18 09:21:14;;;;;;;18.80;11.73;;;4.30;99.90;;;;;;4848966;29;20461;-91
2023/11/18 09:23:42;;;;;;;21.63;12.70;;;4.40;99.90;;;;;;4865960;29;20183;-91
2023/11/18 09:26:10;;;;;;;19.90;13.50;;;4.40;99.90;;;;;;4849071;29;20291;-90
2023/11/18 09:28:36;;;;;;;21.30;13.10;;;4.50;99.90;;;;;;4847067;29;20254;-91
2023/11/18 09:31:03;;;;;;;24.20;15.70;;;4.60;99.90;;;;;;4854313;29;20228;-89
2023/11/18 09:33:34;;;;;;;31.47;17.13;;;4.70;99.90;;;;;;4858528;29;20279;-90
2023/11/18 09:36:11;;;;;;;32.87;18.17;;;4.80;99.90;;;;;;4849189;29;20679;-91
2023/11/18 09:38:42;;;;;;;30.30;18.70;;;4.90;99.90;;;;;;4846496;29;20198;-89
2023/11/18 09:41:11;;;;;;;32.50;18.97;;;5.00;99.90;;;;;;4864164;29;20239;-90
2023/11/18 09:43:47;;;;;;;32.63;19.30;;;5.00;99.90;;;;;;4852583;29;20776;-91
2023/11/18 09:46:17;;;;;;;34.37;20.40;;;5.00;99.90;;;;;;4846705;29;20279;-91
2023/11/18 09:48:48;;;;;;;34.63;20.70;;;5.00;99.90;;;;;;4846520;29;20205;-91
2023/11/18 09:51:24;;;;;;;35.30;21.23;;;5.00;99.90;;;;;;4846492;29;20297;-92
2023/11/18 09:53:53;;;;;;;36.33;23.03;;;5.00;99.90;;;;;;4846690;29;20630;-92
2023/11/18 09:56:37;;;;;;;41.00;23.07;;;5.10;99.90;;;;;;4846561;29;20184;-92
2023/11/18 09:59:19;;;;;;;34.37;22.20;;;5.10;99.90;;;;;;4846696;29;20195;-92
2023/11/18 10:01:53;;;;;;;40.70;22.93;;;5.10;99.90;;;;;;4846372;29;20287;-92
2023/11/18 10:04:20;;;;;;;37.47;22.10;;;5.20;99.90;;;;;;4846478;29;20204;-91
2023/11/18 10:06:53;;;;;;;39.17;23.10;;;5.30;99.90;;;;;;4846487;29;20185;-90
2023/11/18 10:09:28;;;;;;;37.43;23.27;;;5.30;99.90;;;;;;4846522;29;20223;-91
2023/11/18 10:12:05;;;;;;;34.27;21.90;;;5.30;99.90;;;;;;4845951;29;20692;-91
2023/11/18 10:14:34;;;;;;;34.77;22.87;;;5.40;99.90;;;;;;4831772;29;20240;-91
2023/11/18 10:17:07;;;;;;;38.77;23.43;;;5.50;99.90;;;;;;4846323;29;20657;-90
2023/11/18 10:20:12;;;;;;;37.20;22.63;;;5.60;99.90;;;;;;4846084;29;20180;-90
2023/11/18 10:22:38;;;;;;;37.07;20.60;;;5.70;99.90;;;;;;4856646;29;20208;-91
2023/11/18 10:25:06;;;;;;;36.30;21.40;;;5.70;99.90;;;;;;4853565;29;20193;-91
2023/11/18 10:27:34;;;;;;;34.70;22.03;;;5.80;99.90;;;;;;4857770;29;20196;-91
2023/11/18 10:30:18;;;;;;;36.10;22.37;;;5.90;99.90;;;;;;4857051;29;20275;-92
2023/11/18 10:33:07;;;;;;;34.10;21.17;;;6.00;99.90;;;;;;4864280;29;20234;-91
2023/11/18 10:35:37;;;;;;;32.20;21.17;;;6.10;99.90;;;;;;4844113;29;20243;-92
2023/11/18 10:38:06;;;;;;;33.17;22.50;;;6.10;99.90;;;;;;4848450;29;20177;-89
2023/11/18 10:40:37;;;;;;;38.67;20.93;;;6.10;99.90;;;;;;4850197;29;20750;-92
2023/11/18 10:43:09;;;;;;;37.37;22.50;;;6.30;99.90;;;;;;4856419;29;20197;-92
2023/11/18 10:45:41;;;;;;;31.10;20.73;;;6.30;99.90;;;;;;4864499;29;20196;-91
2023/11/18 10:48:08;;;;;;;35.43;21.67;;;6.30;99.90;;;;;;4856454;29;20570;-90
2023/11/18 10:50:34;;;;;;;33.57;21.00;;;6.40;99.90;;;;;;4859504;29;20287;-90
2023/11/18 10:53:01;;;;;;;33.53;21.47;;;6.50;99.90;;;;;;4853542;29;20223;-89
2023/11/18 10:55:40;;;;;;;31.80;20.40;;;6.60;99.90;;;;;;4845760;29;20204;-92
2023/11/18 10:58:07;;;;;;;29.20;19.33;;;6.80;99.90;;;;;;4845754;29;20199;-91
2023/11/18 11:00:55;;;;;;;26.70;17.97;;;6.80;99.90;;;;;;4845846;29;20204;-89
2023/11/18 11:03:24;;;;;;;26.83;17.43;;;6.90;99.90;;;;;;4853033;29;20200;-91
2023/11/18 11:05:50;;;;;;;26.60;17.80;;;6.90;99.90;;;;;;4845685;29;20180;-90
2023/11/18 11:08:16;;;;;;;25.83;17.37;;;6.90;99.90;;;;;;4845414;29;20248;-91
2023/11/18 11:10:43;;;;;;;27.50;17.43;;;7.00;99.90;;;;;;4845208;29;20278;-92
2023/11/18 11:13:11;;;;;;;25.53;17.20;;;7.10;99.90;;;;;;4853196;29;20192;-92
2023/11/18 11:15:49;;;;;;;30.77;17.27;;;7.20;99.90;;;;;;4845496;29;20220;-93
2023/11/18 11:18:23;;;;;;;29.13;17.13;;;7.20;99.90;;;;;;4845391;29;20192;-90
2023/11/18 11:21:09;;;;;;;20.07;15.07;;;7.20;99.90;;;;;;4851249;29;20188;-90
2023/11/18 11:23:55;;;;;;;22.93;15.53;;;7.20;99.90;;;;;;4836544;29;20211;-93
2023/11/18 11:26:39;;;;;;;22.40;15.00;;;7.30;99.90;;;;;;4853041;29;20176;-91
2023/11/18 11:29:22;;;;;;;19.27;13.27;;;7.40;99.90;;;;;;4860769;29;20248;-91
2023/11/18 11:32:01;;;;;;;19.63;12.77;;;7.40;99.90;;;;;;4863338;29;20214;-91
2023/11/18 11:34:31;;;;;;;18.70;13.33;;;7.40;99.90;;;;;;4852532;29;20279;-91
2023/11/18 11:36:59;;;;;;;16.87;12.50;;;7.40;99.90;;;;;;4845022;29;20205;-92
2023/11/18 11:39:25;;;;;;;20.23;12.23;;;7.40;99.90;;;;;;4844462;29;20204;-90
2023/11/18 11:41:58;;;;;;;19.10;13.00;;;7.40;99.90;;;;;;4844826;29;20244;-92
2023/11/18 11:44:42;;;;;;;16.47;11.77;;;7.40;99.90;;;;;;4848105;29;20203;-93
2023/11/18 11:47:09;;;;;;;17.20;11.17;;;7.40;99.90;;;;;;4855683;29;20196;-91
2023/11/18 11:49:45;;;;;;;17.73;12.50;;;7.40;99.90;;;;;;4863129;29;20321;-90
2023/11/18 11:52:29;;;;;;;19.90;13.57;;;7.40;99.90;;;;;;4847627;29;20275;-92
2023/11/18 11:55:19;;;;;;;21.10;15.80;;;7.30;99.90;;;;;;4848200;29;20196;-90
2023/11/18 11:57:53;;;;;;;20.93;15.70;;;7.20;99.90;;;;;;4850369;29;20702;-89
2023/11/18 12:00:19;;;;;;;21.77;15.57;;;7.10;99.90;;;;;;4844798;29;20243;-93
2023/11/18 12:02:51;;;;;;;20.83;15.23;;;7.00;99.90;;;;;;4852046;29;20216;-92
2023/11/18 12:05:25;;;;;;;26.43;15.80;;;7.00;99.90;;;;;;4851943;29;20673;-90
2023/11/18 12:07:54;;;;;;;22.93;15.83;;;7.00;99.90;;;;;;4844558;29;20267;-91
2023/11/18 12:10:22;;;;;;;22.27;15.57;;;7.00;99.90;;;;;;4848675;29;20219;-90
2023/11/18 12:12:49;;;;;;;24.83;15.57;;;6.90;99.90;;;;;;4862702;29;20204;-92
2023/11/18 12:15:20;;;;;;;23.57;15.33;;;6.80;99.90;;;;;;4852846;29;20222;-90
2023/11/18 12:17:58;;;;;;;22.57;15.33;;;6.80;99.90;;;;;;4843916;29;20255;-92
2023/11/18 12:20:47;;;;;;;24.97;15.57;;;6.80;99.90;;;;;;4847318;29;20195;-93
2023/11/18 12:23:14;;;;;;;24.53;16.50;;;6.80;99.90;;;;;;4854505;29;20192;-91
2023/11/18 12:25:45;;;;;;;23.57;15.57;;;6.80;99.90;;;;;;4849744;29;20195;-91
2023/11/18 12:28:21;;;;;;;22.37;14.93;;;6.80;99.90;;;;;;4843804;29;20571;-92
2023/11/18 12:30:56;;;;;;;21.60;14.90;;;6.80;99.90;;;;;;4843841;29;20176;-90
2023/11/18 12:33:28;;;;;;;20.73;15.13;;;6.80;99.90;;;;;;4843800;29;20192;-90
2023/11/18 12:36:22;;;;;;;24.43;14.87;;;6.80;99.90;;;;;;4851831;29;20193;-92
2023/11/18 12:39:13;;;;;;;22.97;15.23;;;6.80;99.90;;;;;;4839486;29;20552;-90
2023/11/18 12:41:40;;;;;;;20.30;14.77;;;6.90;99.90;;;;;;4843533;29;20247;-92
2023/11/18 12:44:35;;;;;;;21.83;15.07;;;6.80;99.90;;;;;;4843831;29;20301;-89
2023/11/18 12:47:21;;;;;;;21.37;15.50;;;6.80;99.90;;;;;;4843790;29;20205;-93
2023/11/18 12:49:54;;;;;;;28.40;17.50;;;6.80;99.90;;;;;;4857693;29;20211;-91
2023/11/18 12:52:21;;;;;;;24.60;17.57;;;6.80;99.90;;;;;;4857116;29;20292;-92
2023/11/18 12:54:50;;;;;;;24.87;17.70;;;6.80;99.90;;;;;;4863925;29;20247;-90
2023/11/18 12:57:38;;;;;;;24.00;17.27;;;6.80;99.90;;;;;;4868198;29;20196;-90
2023/11/18 13:00:11;;;;;;;22.33;15.83;;;6.70;99.90;;;;;;4859810;29;20279;-92
2023/11/18 13:02:38;;;;;;;24.10;17.00;;;6.70;99.90;;;;;;4849669;29;20208;-90
2023/11/18 13:05:09;;;;;;;24.93;16.87;;;6.60;99.90;;;;;;4849992;29;20184;-91